Time;durP1;ratioP1;P1;durP2;ratioP2;P2;SDS_P1;SDS_P2;PMS_P1;PMS_P2;Temp;Humidity;BMP_temperature;BMP_pressure;BME280_temperature;BME280_humidity;BME280_pressure;Samples;Min_cycle;Max_cycle;Signal;HPM_P1;HPM_P2
2022/02/28 00:01:23;;;;;;;15.52;12.05;;;;;;;;;;5053260;28;20503;-73
2022/02/28 00:03:53;;;;;;;13.45;11.68;;;;;;;;;;5053449;28;20053;-73
2022/02/28 00:06:22;;;;;;;15.82;12.38;;;;;;;;;;5076013;28;20037;-73
2022/02/28 00:08:50;;;;;;;14.82;11.98;;;;;;;;;;5044000;28;20424;-73
2022/02/28 00:11:18;;;;;;;16.15;12.52;;;;;;;;;;5050275;28;20131;-73
2022/02/28 00:13:46;;;;;;;14.82;10.82;;;;;;;;;;5054691;28;20049;-73
2022/02/28 00:16:14;;;;;;;16.88;12.27;;;;;;;;;;5054991;28;20404;-73
2022/02/28 00:18:41;;;;;;;13.88;10.77;;;;;;;;;;5054573;28;20048;-73
2022/02/28 00:21:08;;;;;;;12.95;10.30;;;;;;;;;;5055046;28;20056;-73
2022/02/28 00:23:36;;;;;;;14.85;11.07;;;;;;;;;;5053369;28;20049;-73
2022/02/28 00:26:04;;;;;;;16.10;12.30;;;;;;;;;;5054409;28;20072;-73
2022/02/28 00:28:34;;;;;;;16.73;12.13;;;;;;;;;;5052819;28;20051;-73
2022/02/28 00:31:01;;;;;;;13.95;10.98;;;;;;;;;;5074338;28;20040;-73
2022/02/28 00:33:29;;;;;;;18.63;11.85;;;;;;;;;;5069384;28;20054;-73
2022/02/28 00:35:57;;;;;;;18.25;12.50;;;;;;;;;;5052822;28;20053;-73
2022/02/28 00:38:24;;;;;;;15.27;12.93;;;;;;;;;;5063536;28;20131;-72
2022/02/28 00:40:53;;;;;;;12.85;11.38;;;;;;;;;;5054061;28;20049;-73
2022/02/28 00:43:20;;;;;;;19.38;12.77;;;;;;;;;;5069516;28;20048;-73
2022/02/28 00:45:48;;;;;;;19.55;13.00;;;;;;;;;;5036632;28;20118;-73
2022/02/28 00:48:15;;;;;;;14.32;10.93;;;;;;;;;;5052575;28;20480;-73
2022/02/28 00:50:43;;;;;;;13.40;11.90;;;;;;;;;;5054162;28;20052;-72
2022/02/28 00:53:10;;;;;;;13.93;11.43;;;;;;;;;;5050521;28;20045;-73
2022/02/28 00:55:40;;;;;;;16.10;12.85;;;;;;;;;;5054003;28;20041;-73
2022/02/28 00:58:08;;;;;;;16.05;11.52;;;;;;;;;;5036112;28;20060;-73
2022/02/28 01:00:37;;;;;;;14.38;11.18;;;;;;;;;;5053804;28;20507;-73
2022/02/28 01:03:06;;;;;;;15.00;12.55;;;;;;;;;;5052470;28;20412;-72
2022/02/28 01:05:34;;;;;;;18.98;13.45;;;;;;;;;;5053665;28;20447;-73
2022/02/28 01:08:03;;;;;;;16.15;10.77;;;;;;;;;;5053265;28;20068;-72
2022/02/28 01:10:32;;;;;;;14.93;12.32;;;;;;;;;;5048662;28;20057;-72
2022/02/28 01:12:59;;;;;;;14.82;10.98;;;;;;;;;;5043193;28;20103;-72
2022/02/28 01:15:29;;;;;;;13.70;10.65;;;;;;;;;;5052395;28;20041;-72
2022/02/28 01:17:56;;;;;;;12.38;10.90;;;;;;;;;;5053952;28;20076;-72
2022/02/28 01:20:24;;;;;;;18.13;12.80;;;;;;;;;;5068372;28;20056;-73
2022/02/28 01:22:51;;;;;;;12.23;10.57;;;;;;;;;;5068780;28;20044;-72
2022/02/28 01:25:18;;;;;;;12.57;10.20;;;;;;;;;;5068854;28;20133;-72
2022/02/28 01:27:46;;;;;;;12.32;10.82;;;;;;;;;;5069132;28;20115;-72
2022/02/28 01:30:14;;;;;;;13.98;9.93;;;;;;;;;;5068818;28;20422;-72
2022/02/28 01:32:41;;;;;;;11.30;10.15;;;;;;;;;;5053566;28;20515;-72
2022/02/28 01:35:10;;;;;;;12.35;10.73;;;;;;;;;;5053199;28;20048;-72
2022/02/28 01:37:39;;;;;;;13.00;9.20;;;;;;;;;;5035863;28;20057;-72
2022/02/28 01:40:10;;;;;;;10.20;9.02;;;;;;;;;;5052508;28;20110;-72
2022/02/28 01:42:38;;;;;;;10.50;9.32;;;;;;;;;;5068740;28;20060;-72
2022/02/28 01:45:11;;;;;;;12.88;8.93;;;;;;;;;;5053414;28;20045;-72
2022/02/28 01:47:39;;;;;;;11.32;8.80;;;;;;;;;;5051928;28;20087;-72
2022/02/28 01:50:07;;;;;;;12.73;10.10;;;;;;;;;;5035753;28;20484;-72
2022/02/28 01:52:35;;;;;;;10.73;9.63;;;;;;;;;;5051787;28;20091;-72
2022/02/28 01:55:04;;;;;;;12.27;8.63;;;;;;;;;;5053295;28;20079;-73
2022/02/28 01:57:31;;;;;;;10.85;9.73;;;;;;;;;;5035510;28;20407;-72
2022/02/28 02:00:00;;;;;;;10.48;9.13;;;;;;;;;;5052323;28;20048;-72
2022/02/28 02:02:28;;;;;;;14.05;9.18;;;;;;;;;;5053072;28;20101;-72
2022/02/28 02:04:56;;;;;;;15.10;8.90;;;;;;;;;;5051929;28;20128;-72
2022/02/28 02:07:23;;;;;;;10.55;9.25;;;;;;;;;;5051757;28;20503;-72
2022/02/28 02:09:51;;;;;;;12.27;8.10;;;;;;;;;;5035182;28;20075;-72
2022/02/28 02:12:19;;;;;;;9.77;8.77;;;;;;;;;;5051515;28;20047;-72
2022/02/28 02:14:47;;;;;;;11.88;9.68;;;;;;;;;;5051616;28;20045;-72
2022/02/28 02:17:15;;;;;;;11.00;9.18;;;;;;;;;;5019147;28;20051;-72
2022/02/28 02:19:45;;;;;;;12.52;11.23;;;;;;;;;;5035217;28;20045;-72
2022/02/28 02:22:20;;;;;;;15.50;9.68;;;;;;;;;;5034861;28;20147;-72
2022/02/28 02:24:49;;;;;;;10.48;9.40;;;;;;;;;;5051779;28;20041;-72
2022/02/28 02:27:18;;;;;;;14.95;8.48;;;;;;;;;;5035056;28;20055;-72
2022/02/28 02:29:45;;;;;;;11.43;8.88;;;;;;;;;;5035152;28;20057;-72
2022/02/28 02:32:18;;;;;;;14.85;10.95;;;;;;;;;;5068186;28;20049;-72
2022/02/28 02:34:49;;;;;;;15.73;8.85;;;;;;;;;;5051998;28;20475;-72
2022/02/28 02:37:17;;;;;;;11.50;9.82;;;;;;;;;;5052380;28;20045;-72
2022/02/28 02:39:45;;;;;;;10.10;9.02;;;;;;;;;;5031851;28;20065;-72
2022/02/28 02:42:12;;;;;;;11.93;9.50;;;;;;;;;;5047053;28;20179;-72
2022/02/28 02:44:41;;;;;;;13.70;9.25;;;;;;;;;;5035164;28;20045;-71
2022/02/28 02:47:08;;;;;;;11.15;9.70;;;;;;;;;;5067970;28;20037;-71
2022/02/28 02:49:58;;;;;;;13.00;8.90;;;;;;;;;;5037672;28;20064;-71
2022/02/28 02:52:29;;;;;;;10.85;8.73;;;;;;;;;;5053363;28;20063;-72
2022/02/28 02:54:56;;;;;;;12.45;8.88;;;;;;;;;;5071851;28;20073;-72
2022/02/28 02:57:28;;;;;;;14.52;9.10;;;;;;;;;;5039231;28;20120;-72
2022/02/28 02:59:56;;;;;;;10.55;8.25;;;;;;;;;;5038620;28;20077;-73
2022/02/28 03:02:24;;;;;;;18.42;8.88;;;;;;;;;;5055121;28;20053;-73
2022/02/28 03:04:51;;;;;;;10.25;7.65;;;;;;;;;;5038581;28;20056;-74
2022/02/28 03:07:21;;;;;;;13.25;9.30;;;;;;;;;;5038541;28;20468;-73
2022/02/28 03:09:48;;;;;;;11.85;8.90;;;;;;;;;;5054566;28;20053;-73
2022/02/28 03:12:17;;;;;;;12.90;9.52;;;;;;;;;;5054610;28;20541;-73
2022/02/28 03:14:47;;;;;;;16.88;8.68;;;;;;;;;;5038504;28;20044;-73
2022/02/28 03:17:14;;;;;;;13.68;8.43;;;;;;;;;;5037618;28;20045;-72
2022/02/28 03:19:43;;;;;;;11.85;8.48;;;;;;;;;;5038408;28;20060;-73
2022/02/28 03:22:11;;;;;;;9.50;8.05;;;;;;;;;;5037764;28;20076;-72
2022/02/28 03:24:43;;;;;;;13.02;8.88;;;;;;;;;;5023117;28;20057;-72
2022/02/28 03:27:11;;;;;;;12.70;9.98;;;;;;;;;;5037983;28;20049;-72
2022/02/28 03:29:44;;;;;;;14.90;10.65;;;;;;;;;;5038561;28;20053;-72
2022/02/28 03:32:12;;;;;;;16.05;9.50;;;;;;;;;;5071129;28;20045;-72
2022/02/28 03:34:40;;;;;;;13.63;9.57;;;;;;;;;;5070718;28;20052;-72
2022/02/28 03:37:08;;;;;;;11.57;9.18;;;;;;;;;;5053790;28;20487;-72
2022/02/28 03:39:35;;;;;;;14.88;10.10;;;;;;;;;;5027095;28;20144;-72
2022/02/28 03:42:06;;;;;;;11.07;9.85;;;;;;;;;;5053533;28;20049;-71
2022/02/28 03:44:34;;;;;;;13.77;10.43;;;;;;;;;;5035560;28;20045;-72
2022/02/28 03:47:07;;;;;;;12.40;9.57;;;;;;;;;;5069665;28;20073;-73
2022/02/28 03:49:35;;;;;;;10.93;9.55;;;;;;;;;;5054569;28;20049;-71
2022/02/28 03:52:13;;;;;;;13.05;10.05;;;;;;;;;;5062874;28;20053;-72
2022/02/28 03:55:08;;;;;;;10.77;9.45;;;;;;;;;;5036182;28;20053;-72
2022/02/28 03:57:37;;;;;;;12.23;10.15;;;;;;;;;;5052528;28;20120;-72
2022/02/28 04:00:07;;;;;;;14.48;11.10;;;;;;;;;;5063275;28;20055;-72
2022/02/28 04:02:44;;;;;;;14.57;10.30;;;;;;;;;;5034409;28;20514;-72
2022/02/28 04:05:13;;;;;;;14.40;11.90;;;;;;;;;;5061437;28;20041;-71
2022/02/28 04:07:41;;;;;;;14.25;11.32;;;;;;;;;;5044377;28;20045;-71
2022/02/28 04:10:08;;;;;;;14.82;12.00;;;;;;;;;;5068180;28;20055;-72
2022/02/28 04:12:38;;;;;;;14.38;11.13;;;;;;;;;;5038836;28;20057;-71
2022/02/28 04:15:06;;;;;;;15.43;11.00;;;;;;;;;;5058283;28;20052;-72
2022/02/28 04:17:34;;;;;;;11.10;9.85;;;;;;;;;;4994660;28;20049;-72
2022/02/28 04:20:13;;;;;;;14.75;11.20;;;;;;;;;;5044730;28;20442;-71
2022/02/28 04:22:42;;;;;;;14.02;11.43;;;;;;;;;;5051079;28;20041;-72
2022/02/28 04:25:10;;;;;;;17.90;10.75;;;;;;;;;;5055423;28;20124;-71
2022/02/28 04:27:40;;;;;;;16.98;11.90;;;;;;;;;;5043803;28;20049;-72
2022/02/28 04:30:12;;;;;;;15.35;13.48;;;;;;;;;;5048994;28;20046;-72
2022/02/28 04:32:40;;;;;;;12.68;10.18;;;;;;;;;;5032192;28;20069;-71
2022/02/28 04:35:09;;;;;;;21.90;11.07;;;;;;;;;;5041912;28;20069;-71
2022/02/28 04:37:40;;;;;;;15.90;11.35;;;;;;;;;;5055229;28;20084;-72
2022/02/28 04:40:12;;;;;;;12.68;11.18;;;;;;;;;;5027830;28;20384;-72
2022/02/28 04:42:40;;;;;;;14.25;11.73;;;;;;;;;;5032962;28;20578;-72
2022/02/28 04:45:09;;;;;;;13.52;12.10;;;;;;;;;;5035697;28;20050;-73
2022/02/28 04:47:37;;;;;;;18.30;11.00;;;;;;;;;;5020866;28;20064;-73
2022/02/28 04:50:08;;;;;;;13.98;12.48;;;;;;;;;;5034225;28;20054;-73
2022/02/28 04:52:38;;;;;;;13.60;12.10;;;;;;;;;;5022829;28;20049;-73
2022/02/28 04:55:06;;;;;;;17.45;11.57;;;;;;;;;;5044176;28;20050;-72
2022/02/28 04:57:41;;;;;;;13.15;11.90;;;;;;;;;;5049970;28;20064;-72
2022/02/28 05:00:14;;;;;;;15.52;12.20;;;;;;;;;;5051563;28;20049;-73
2022/02/28 05:03:19;;;;;;;14.55;12.85;;;;;;;;;;5058762;27;20807;-72
2022/02/28 05:05:47;;;;;;;17.35;12.95;;;;;;;;;;5040758;28;20053;-72
2022/02/28 05:08:15;;;;;;;17.95;13.50;;;;;;;;;;5017367;28;20038;-71
2022/02/28 05:10:43;;;;;;;14.90;13.25;;;;;;;;;;5011408;28;20081;-73
2022/02/28 05:13:14;;;;;;;15.77;12.90;;;;;;;;;;5010234;28;20153;-73
2022/02/28 05:15:42;;;;;;;16.83;11.93;;;;;;;;;;5011474;28;20060;-73
2022/02/28 05:18:11;;;;;;;18.10;12.02;;;;;;;;;;4994323;28;20455;-73
2022/02/28 05:20:39;;;;;;;14.77;11.77;;;;;;;;;;5022604;28;20053;-73
2022/02/28 05:23:07;;;;;;;13.90;12.30;;;;;;;;;;5006614;28;20046;-72
2022/02/28 05:25:35;;;;;;;15.95;11.88;;;;;;;;;;5006709;28;20504;-73
2022/02/28 05:28:23;;;;;;;13.93;11.95;;;;;;;;;;5015302;28;20104;-73
2022/02/28 05:30:52;;;;;;;15.35;11.20;;;;;;;;;;4996501;28;20104;-73
2022/02/28 05:33:19;;;;;;;15.13;10.68;;;;;;;;;;5028987;28;20052;-73
2022/02/28 05:35:51;;;;;;;16.70;12.35;;;;;;;;;;5028631;28;20054;-73
2022/02/28 05:38:25;;;;;;;14.33;11.33;;;;;;;;;;5010030;28;20050;-73
2022/02/28 05:40:59;;;;;;;16.02;11.82;;;;;;;;;;4994509;28;20042;-72
2022/02/28 05:43:32;;;;;;;17.15;10.00;;;;;;;;;;5022757;28;20053;-73
2022/02/28 05:46:06;;;;;;;13.32;11.50;;;;;;;;;;5014518;28;20057;-73
2022/02/28 05:48:44;;;;;;;13.70;10.23;;;;;;;;;;5009652;28;20072;-73
2022/02/28 05:51:16;;;;;;;14.68;11.00;;;;;;;;;;5009411;28;20061;-73
2022/02/28 05:53:45;;;;;;;22.23;12.63;;;;;;;;;;5026520;28;20374;-72
2022/02/28 05:56:13;;;;;;;14.98;11.02;;;;;;;;;;5028303;28;20385;-73
2022/02/28 05:58:40;;;;;;;17.88;10.65;;;;;;;;;;5028885;28;20088;-73
2022/02/28 06:01:08;;;;;;;20.38;11.45;;;;;;;;;;5027914;28;20381;-71
2022/02/28 06:03:36;;;;;;;16.83;11.48;;;;;;;;;;5026435;28;20050;-71
2022/02/28 06:06:04;;;;;;;16.88;11.38;;;;;;;;;;5012789;28;20053;-71
2022/02/28 06:08:32;;;;;;;16.27;10.30;;;;;;;;;;5030027;28;20053;-71
2022/02/28 06:11:01;;;;;;;12.93;10.07;;;;;;;;;;5028181;28;20041;-71
2022/02/28 06:13:29;;;;;;;12.13;9.50;;;;;;;;;;5019967;28;20072;-72
2022/02/28 06:15:59;;;;;;;14.43;11.90;;;;;;;;;;5017720;28;20054;-73
2022/02/28 06:18:27;;;;;;;16.45;10.10;;;;;;;;;;5014347;28;20041;-72
2022/02/28 06:20:54;;;;;;;15.75;10.43;;;;;;;;;;5009378;28;20062;-72
2022/02/28 06:23:22;;;;;;;14.77;10.13;;;;;;;;;;5009836;28;20481;-72
2022/02/28 06:25:49;;;;;;;13.38;10.15;;;;;;;;;;5008561;28;20057;-71
2022/02/28 06:28:19;;;;;;;19.92;10.35;;;;;;;;;;5015448;28;20123;-71
2022/02/28 06:30:47;;;;;;;13.15;11.02;;;;;;;;;;5013470;28;20120;-72
2022/02/28 06:33:15;;;;;;;13.13;11.25;;;;;;;;;;4998138;28;20092;-73
2022/02/28 06:35:48;;;;;;;19.88;11.10;;;;;;;;;;5014727;28;20124;-74
2022/02/28 06:38:18;;;;;;;16.98;11.23;;;;;;;;;;5013667;28;20049;-73
2022/02/28 06:40:49;;;;;;;13.82;10.07;;;;;;;;;;5004155;28;20221;-74
2022/02/28 06:45:54;;;;;;;23.10;12.88;;;;;;;;;;5106313;27;20379;-73
2022/02/28 06:48:36;;;;;;;16.75;10.10;;;;;;;;;;5072512;28;20113;-75
2022/02/28 06:51:28;;;;;;;;;;;;;;;;;;5083312;28;20040;-73
2022/02/28 06:53:55;;;;;;;15.35;11.02;;;;;;;;;;4991204;28;19924;-74
2022/02/28 06:56:23;;;;;;;14.75;11.52;;;;;;;;;;5066433;28;20446;-74
2022/02/28 06:58:50;;;;;;;21.08;13.00;;;;;;;;;;5048244;28;20499;-73
2022/02/28 07:01:19;;;;;;;18.70;12.20;;;;;;;;;;5065017;28;20053;-74
2022/02/28 07:13:10;;;;;;;15.80;7.85;;;;;;;;;;5022032;28;20389;-54
2022/02/28 07:15:42;;;;;;;15.60;7.88;;;;;;;;;;5029791;28;20128;-54
2022/02/28 07:18:10;;;;;;;13.38;7.95;;;;;;;;;;5021834;28;20077;-54
2022/02/28 07:20:37;;;;;;;12.60;7.63;;;;;;;;;;5024016;28;20144;-57
2022/02/28 07:23:06;;;;;;;16.95;10.30;;;;;;;;;;5024537;28;20053;-59
2022/02/28 07:25:35;;;;;;;13.00;8.00;;;;;;;;;;5024953;28;20076;-57
2022/02/28 07:28:02;;;;;;;15.80;9.48;;;;;;;;;;5025478;28;20152;-58
2022/02/28 07:30:30;;;;;;;14.00;9.02;;;;;;;;;;5025254;28;20088;-58
2022/02/28 07:32:58;;;;;;;11.77;9.70;;;;;;;;;;5024850;28;20050;-58
2022/02/28 07:35:33;;;;;;;11.63;7.68;;;;;;;;;;5025306;28;20060;-58
2022/02/28 07:38:00;;;;;;;15.32;8.02;;;;;;;;;;5026106;28;20057;-56
2022/02/28 07:40:29;;;;;;;10.48;7.97;;;;;;;;;;5026730;28;20072;-56
2022/02/28 07:42:57;;;;;;;13.45;8.35;;;;;;;;;;5043940;28;20075;-55
2022/02/28 07:45:24;;;;;;;10.77;7.63;;;;;;;;;;5036741;28;20062;-56
2022/02/28 07:47:51;;;;;;;13.48;7.78;;;;;;;;;;5043750;28;20088;-53
2022/02/28 07:50:20;;;;;;;10.10;7.93;;;;;;;;;;5044428;28;20045;-56
2022/02/28 07:52:47;;;;;;;25.05;9.15;;;;;;;;;;5044902;28;20091;-57
2022/02/28 07:55:15;;;;;;;11.23;8.40;;;;;;;;;;5045485;28;20053;-56
2022/02/28 07:57:43;;;;;;;16.45;7.55;;;;;;;;;;5044295;28;20512;-56
2022/02/28 08:00:11;;;;;;;10.55;8.10;;;;;;;;;;5044918;28;20107;-55
2022/02/28 08:02:39;;;;;;;10.43;7.70;;;;;;;;;;5038338;28;20559;-56
2022/02/28 08:05:07;;;;;;;12.98;8.80;;;;;;;;;;5026371;28;20049;-56
2022/02/28 08:07:39;;;;;;;12.77;8.75;;;;;;;;;;5025016;28;20053;-56
2022/02/28 08:10:08;;;;;;;15.38;9.82;;;;;;;;;;5026162;28;20046;-57
2022/02/28 08:12:35;;;;;;;13.40;8.48;;;;;;;;;;5037953;28;20547;-56
2022/02/28 08:15:05;;;;;;;17.00;9.43;;;;;;;;;;5041629;28;20058;-56
2022/02/28 08:17:33;;;;;;;15.45;9.48;;;;;;;;;;5060281;28;20056;-56
2022/02/28 08:20:01;;;;;;;11.52;9.30;;;;;;;;;;5043611;28;20057;-56
2022/02/28 08:22:28;;;;;;;11.63;8.98;;;;;;;;;;5041902;28;20570;-56
2022/02/28 08:24:58;;;;;;;11.80;8.65;;;;;;;;;;5034099;28;20128;-55
2022/02/28 08:27:26;;;;;;;12.63;9.20;;;;;;;;;;5033850;28;20073;-55
2022/02/28 08:29:54;;;;;;;16.75;8.85;;;;;;;;;;5034374;28;20046;-54
2022/02/28 08:32:22;;;;;;;11.10;8.73;;;;;;;;;;5030226;28;20042;-56
2022/02/28 08:34:49;;;;;;;18.30;9.60;;;;;;;;;;5015932;28;20128;-55
2022/02/28 08:37:16;;;;;;;13.27;7.93;;;;;;;;;;5015401;28;20575;-56
2022/02/28 08:39:44;;;;;;;13.23;9.40;;;;;;;;;;5014516;28;20053;-56
2022/02/28 08:42:12;;;;;;;12.38;8.02;;;;;;;;;;5014606;28;20058;-56
2022/02/28 08:44:40;;;;;;;16.02;9.73;;;;;;;;;;5014568;28;20042;-56
2022/02/28 08:47:07;;;;;;;14.25;9.98;;;;;;;;;;4998972;28;20092;-56
2022/02/28 08:49:35;;;;;;;13.82;9.93;;;;;;;;;;5014425;28;20042;-56
2022/02/28 08:52:06;;;;;;;11.45;9.65;;;;;;;;;;5014362;28;20042;-57
2022/02/28 08:54:35;;;;;;;10.93;7.75;;;;;;;;;;4996832;28;20140;-55
2022/02/28 08:57:03;;;;;;;17.50;9.35;;;;;;;;;;5015532;28;20050;-50
2022/02/28 08:59:34;;;;;;;14.48;7.65;;;;;;;;;;5001349;28;20408;-55
2022/02/28 09:02:02;;;;;;;8.07;5.88;;;;;;;;;;5015171;28;20119;-54
2022/02/28 09:04:31;;;;;;;13.32;7.40;;;;;;;;;;5014697;28;20038;-56
2022/02/28 09:07:03;;;;;;;12.20;5.80;;;;;;;;;;5014112;28;20050;-48
2022/02/28 09:09:30;;;;;;;25.55;8.55;;;;;;;;;;5014255;28;20137;-59
2022/02/28 09:11:57;;;;;;;11.65;7.20;;;;;;;;;;5013909;28;20053;-63
2022/02/28 09:14:24;;;;;;;9.38;5.95;;;;;;;;;;5014795;28;20077;-56
2022/02/28 09:16:52;;;;;;;8.80;6.68;;;;;;;;;;5043446;28;20105;-58
2022/02/28 09:19:20;;;;;;;8.50;6.38;;;;;;;;;;5034618;28;20059;-54
2022/02/28 09:21:47;;;;;;;8.00;6.55;;;;;;;;;;5032984;28;20081;-54
2022/02/28 09:24:15;;;;;;;8.88;6.07;;;;;;;;;;5033790;28;20041;-55
2022/02/28 09:26:43;;;;;;;8.30;5.55;;;;;;;;;;5016812;28;20045;-56
2022/02/28 09:29:11;;;;;;;8.70;6.60;;;;;;;;;;5034666;28;20111;-55
2022/02/28 09:31:38;;;;;;;7.03;5.82;;;;;;;;;;5014601;28;20049;-55
2022/02/28 09:34:06;;;;;;;11.57;6.70;;;;;;;;;;5014306;28;20058;-55
2022/02/28 09:36:33;;;;;;;12.20;6.22;;;;;;;;;;5014766;28;20046;-54
2022/02/28 09:39:02;;;;;;;9.85;6.65;;;;;;;;;;5029759;28;20053;-55
2022/02/28 09:41:59;;;;;;;7.65;6.65;;;;;;;;;;5002242;28;20141;-55
2022/02/28 09:44:47;;;;;;;12.43;7.03;;;;;;;;;;5027322;28;20641;-57
2022/02/28 09:47:41;;;;;;;17.75;8.30;;;;;;;;;;5006285;28;20060;-54
2022/02/28 09:50:27;;;;;;;8.32;6.88;;;;;;;;;;5014566;28;20060;-56
2022/02/28 09:53:06;;;;;;;11.18;6.45;;;;;;;;;;5013556;28;20053;-56
2022/02/28 09:55:55;;;;;;;13.48;6.75;;;;;;;;;;5010158;28;20054;-54
2022/02/28 09:58:38;;;;;;;7.75;6.53;;;;;;;;;;5013386;28;20086;-56
2022/02/28 10:01:05;;;;;;;11.15;7.03;;;;;;;;;;5029490;28;20085;-55
2022/02/28 10:03:41;;;;;;;10.90;6.25;;;;;;;;;;4996432;28;20053;-51
2022/02/28 10:06:08;;;;;;;8.93;5.25;;;;;;;;;;5026784;28;20055;-55
2022/02/28 10:08:45;;;;;;;7.53;4.88;;;;;;;;;;5012560;28;20398;-54
2022/02/28 10:11:42;;;;;;;9.27;4.93;;;;;;;;;;5010115;28;20053;-53
2022/02/28 10:14:11;;;;;;;7.95;4.20;;;;;;;;;;5014053;28;20046;-51
2022/02/28 10:16:50;;;;;;;4.78;4.13;;;;;;;;;;4996876;28;20049;-53
2022/02/28 10:19:24;;;;;;;6.15;4.13;;;;;;;;;;5010141;28;20042;-52
2022/02/28 10:21:55;;;;;;;8.15;5.80;;;;;;;;;;5013269;28;20253;-53
2022/02/28 10:24:26;;;;;;;5.63;4.03;;;;;;;;;;5014511;28;20054;-57
2022/02/28 10:27:16;;;;;;;6.28;4.65;;;;;;;;;;5012355;28;20413;-57
2022/02/28 10:30:02;;;;;;;5.03;3.55;;;;;;;;;;5012681;28;20064;-53
2022/02/28 10:32:51;;;;;;;6.22;4.00;;;;;;;;;;5014559;28;20088;-53
2022/02/28 10:38:34;;;;;;;5.35;4.32;;;;;;;;;;5008153;28;20050;-59
2022/02/28 10:41:04;;;;;;;6.30;4.30;;;;;;;;;;5012615;28;20061;-55
2022/02/28 10:43:36;;;;;;;6.18;4.53;;;;;;;;;;5014692;28;20057;-58
2022/02/28 10:46:24;;;;;;;6.50;4.53;;;;;;;;;;5017316;28;20050;-57
2022/02/28 10:49:04;;;;;;;5.50;3.75;;;;;;;;;;5013353;28;20105;-47
2022/02/28 10:51:43;;;;;;;7.97;4.43;;;;;;;;;;5011995;28;20136;-45
2022/02/28 10:54:20;;;;;;;4.85;3.90;;;;;;;;;;5012408;28;20056;-46
2022/02/28 10:56:59;;;;;;;4.65;3.78;;;;;;;;;;5013476;28;20049;-45
2022/02/28 10:59:29;;;;;;;5.97;4.30;;;;;;;;;;5012038;28;20045;-40
2022/02/28 11:01:59;;;;;;;5.53;3.95;;;;;;;;;;5012154;28;20042;-41
2022/02/28 11:04:41;;;;;;;4.30;3.30;;;;;;;;;;5013561;28;20489;-44
2022/02/28 11:07:23;;;;;;;5.95;3.90;;;;;;;;;;5011121;28;20141;-43
2022/02/28 11:09:50;;;;;;;6.28;4.70;;;;;;;;;;5021274;28;20061;-36
2022/02/28 11:12:29;;;;;;;8.43;6.20;;;;;;;;;;5012469;28;20058;-39
2022/02/28 11:14:59;;;;;;;7.00;6.35;;;;;;;;;;5014566;28;20565;-39
2022/02/28 11:17:31;;;;;;;6.53;4.95;;;;;;;;;;5030818;28;20136;-39
2022/02/28 11:20:00;;;;;;;9.38;6.45;;;;;;;;;;5031251;28;20062;-36
2022/02/28 11:22:30;;;;;;;6.43;5.82;;;;;;;;;;5031727;28;20476;-36
2022/02/28 11:24:57;;;;;;;8.50;6.40;;;;;;;;;;5031750;28;20136;-36
2022/02/28 11:27:26;;;;;;;8.35;5.90;;;;;;;;;;5032512;28;20049;-36
2022/02/28 11:29:59;;;;;;;6.47;5.80;;;;;;;;;;5024589;28;20042;-36
2022/02/28 11:32:27;;;;;;;7.57;6.57;;;;;;;;;;5011808;28;20046;-35
2022/02/28 11:35:33;;;;;;;7.22;5.65;;;;;;;;;;5011980;28;20092;-36
2022/02/28 11:38:25;;;;;;;9.93;7.53;;;;;;;;;;5019642;28;20096;-35
2022/02/28 11:40:57;;;;;;;6.72;5.90;;;;;;;;;;5009416;28;20054;-35
2022/02/28 11:43:29;;;;;;;11.38;6.88;;;;;;;;;;5013483;28;20508;-36
2022/02/28 11:46:14;;;;;;;6.47;5.60;;;;;;;;;;5018922;28;20096;-36
2022/02/28 11:48:50;;;;;;;8.00;6.00;;;;;;;;;;5031401;28;20046;-36
2022/02/28 11:51:29;;;;;;;12.85;5.55;;;;;;;;;;5028668;28;20528;-36
2022/02/28 11:54:02;;;;;;;6.15;5.53;;;;;;;;;;5026313;28;20041;-36
2022/02/28 11:56:30;;;;;;;7.97;4.93;;;;;;;;;;5012826;28;20555;-36
2022/02/28 11:59:02;;;;;;;6.13;5.50;;;;;;;;;;5003412;28;20048;-36
2022/02/28 12:01:33;;;;;;;7.93;5.57;;;;;;;;;;5015631;28;20084;-36
2022/02/28 12:04:07;;;;;;;7.10;6.38;;;;;;;;;;5015211;28;20054;-36
2022/02/28 12:07:07;;;;;;;7.72;5.72;;;;;;;;;;5004612;28;20054;-36
2022/02/28 12:09:38;;;;;;;6.07;5.50;;;;;;;;;;5029770;28;20054;-36
2022/02/28 12:12:22;;;;;;;9.93;6.45;;;;;;;;;;5035329;28;20492;-36
2022/02/28 12:14:55;;;;;;;5.80;5.18;;;;;;;;;;5031554;28;20148;-36
2022/02/28 12:17:48;;;;;;;9.35;6.38;;;;;;;;;;5003704;28;20571;-36
2022/02/28 12:20:25;;;;;;;6.50;5.90;;;;;;;;;;5015630;28;20056;-36
2022/02/28 12:22:58;;;;;;;7.07;5.63;;;;;;;;;;5033683;28;20136;-36
2022/02/28 12:25:46;;;;;;;7.22;5.38;;;;;;;;;;5035043;28;20566;-36
2022/02/28 12:28:35;;;;;;;5.75;5.07;;;;;;;;;;5033935;28;20496;-36
2022/02/28 12:31:12;;;;;;;8.13;7.32;;;;;;;;;;5035527;28;20049;-36
2022/02/28 12:33:42;;;;;;;6.75;6.03;;;;;;;;;;5018368;28;20049;-36
2022/02/28 12:36:31;;;;;;;6.38;5.57;;;;;;;;;;5015701;28;20053;-36
2022/02/28 12:39:06;;;;;;;8.02;6.38;;;;;;;;;;5002562;28;20419;-37
2022/02/28 12:41:39;;;;;;;6.43;5.45;;;;;;;;;;5001060;28;20053;-36
2022/02/28 12:44:09;;;;;;;6.38;5.50;;;;;;;;;;5001032;28;20038;-36
2022/02/28 12:46:42;;;;;;;6.22;5.63;;;;;;;;;;5029292;28;20050;-36
2022/02/28 12:49:14;;;;;;;7.95;5.28;;;;;;;;;;5029580;28;20053;-36
2022/02/28 12:51:42;;;;;;;6.80;6.10;;;;;;;;;;5024803;28;20080;-36
2022/02/28 12:54:12;;;;;;;7.72;6.90;;;;;;;;;;5020728;28;20493;-36
2022/02/28 12:56:44;;;;;;;6.88;6.18;;;;;;;;;;5013437;28;20046;-36
2022/02/28 12:59:11;;;;;;;8.27;6.40;;;;;;;;;;5012998;28;20064;-36
2022/02/28 13:01:39;;;;;;;10.02;6.38;;;;;;;;;;5014159;28;20076;-36
2022/02/28 13:04:08;;;;;;;6.00;4.53;;;;;;;;;;5012794;28;20128;-36
2022/02/28 13:06:42;;;;;;;6.07;4.53;;;;;;;;;;5013592;28;20081;-36
2022/02/28 13:09:11;;;;;;;6.70;4.50;;;;;;;;;;5013249;28;20222;-36
2022/02/28 13:11:44;;;;;;;9.95;4.68;;;;;;;;;;5014134;28;20531;-40
2022/02/28 13:14:15;;;;;;;6.28;3.60;;;;;;;;;;5014443;28;20050;-38
2022/02/28 13:17:04;;;;;;;5.38;4.13;;;;;;;;;;5013114;28;20557;-38
2022/02/28 13:19:32;;;;;;;7.85;3.40;;;;;;;;;;5013831;28;20060;-39
2022/02/28 13:22:15;;;;;;;6.93;4.13;;;;;;;;;;5011478;28;20488;-41
2022/02/28 13:24:49;;;;;;;5.22;3.53;;;;;;;;;;5014160;28;20034;-39
2022/02/28 13:27:19;;;;;;;6.93;3.58;;;;;;;;;;5013544;28;20086;-39
2022/02/28 13:29:47;;;;;;;4.70;3.50;;;;;;;;;;5014696;28;20446;-39
2022/02/28 13:32:19;;;;;;;13.68;5.20;;;;;;;;;;5014201;28;20116;-38
2022/02/28 13:34:47;;;;;;;4.20;3.63;;;;;;;;;;5014308;28;20108;-41
2022/02/28 13:37:18;;;;;;;8.52;3.80;;;;;;;;;;5014372;28;20081;-39
2022/02/28 13:39:46;;;;;;;11.98;4.30;;;;;;;;;;5014206;28;20049;-40
2022/02/28 13:42:21;;;;;;;10.27;4.75;;;;;;;;;;5012809;28;20084;-39
2022/02/28 13:44:51;;;;;;;19.75;5.10;;;;;;;;;;5012446;28;20042;-39
2022/02/28 13:47:23;;;;;;;11.70;5.13;;;;;;;;;;5022173;28;20160;-39
2022/02/28 13:49:59;;;;;;;13.68;5.40;;;;;;;;;;5013234;28;20053;-39
2022/02/28 13:52:31;;;;;;;57.15;8.73;;;;;;;;;;5013972;28;20061;-40
2022/02/28 13:55:17;;;;;;;19.88;5.38;;;;;;;;;;5012397;28;20056;-39
2022/02/28 13:57:59;;;;;;;;;;;;;;;;;;5011990;28;20555;-39
2022/02/28 14:00:29;;;;;;;10.40;4.35;;;;;;;;;;5014277;28;20308;-39
2022/02/28 14:03:13;;;;;;;14.40;4.35;;;;;;;;;;5013892;28;20134;-39
2022/02/28 14:05:43;;;;;;;10.18;4.18;;;;;;;;;;5011865;28;20046;-39
2022/02/28 14:08:16;;;;;;;9.27;3.85;;;;;;;;;;5013580;28;20556;-39
2022/02/28 14:10:51;;;;;;;11.40;6.13;;;;;;;;;;5013103;28;20073;-39
2022/02/28 14:13:20;;;;;;;13.07;4.28;;;;;;;;;;5012047;28;20042;-39
2022/02/28 14:15:55;;;;;;;14.68;4.25;;;;;;;;;;5013547;28;20054;-39
2022/02/28 14:18:28;;;;;;;6.90;4.28;;;;;;;;;;5001907;28;20046;-39
2022/02/28 14:21:04;;;;;;;7.88;4.18;;;;;;;;;;5010777;28;20045;-39
2022/02/28 14:24:13;;;;;;;7.78;4.35;;;;;;;;;;4991963;28;20056;-38
2022/02/28 14:27:01;;;;;;;10.65;5.30;;;;;;;;;;4978421;28;20065;-40
2022/02/28 14:29:37;;;;;;;;;;;;;;;;;;4986555;28;20042;-39
2022/02/28 14:32:26;;;;;;;13.15;4.57;;;;;;;;;;5009718;28;20288;-38
2022/02/28 14:34:53;;;;;;;10.10;3.78;;;;;;;;;;5013000;28;20046;-38
2022/02/28 14:37:20;;;;;;;15.68;3.75;;;;;;;;;;5011381;28;20056;-38
2022/02/28 14:39:48;;;;;;;10.60;4.72;;;;;;;;;;5023892;28;20124;-40
2022/02/28 14:42:16;;;;;;;14.85;4.80;;;;;;;;;;5008018;28;20089;-38
2022/02/28 14:44:44;;;;;;;7.63;3.60;;;;;;;;;;5011373;28;20436;-38
2022/02/28 14:47:12;;;;;;;6.35;4.13;;;;;;;;;;5009354;28;20046;-38
2022/02/28 14:49:39;;;;;;;9.32;4.47;;;;;;;;;;4993308;28;20049;-38
2022/02/28 14:52:07;;;;;;;11.23;3.70;;;;;;;;;;5010054;28;20050;-39
2022/02/28 14:54:35;;;;;;;8.40;3.83;;;;;;;;;;5010696;28;20069;-39
2022/02/28 14:57:03;;;;;;;14.77;5.03;;;;;;;;;;5011273;28;20405;-41
2022/02/28 14:59:32;;;;;;;8.55;3.97;;;;;;;;;;4994901;28;20050;-40
2022/02/28 15:01:59;;;;;;;5.13;3.47;;;;;;;;;;5012759;28;20057;-40
2022/02/28 15:04:27;;;;;;;9.43;4.18;;;;;;;;;;4995384;28;20046;-40
2022/02/28 15:06:58;;;;;;;5.47;3.97;;;;;;;;;;5015702;28;20046;-39
2022/02/28 15:09:26;;;;;;;13.23;4.63;;;;;;;;;;5012518;28;20129;-40
2022/02/28 15:11:54;;;;;;;9.93;4.25;;;;;;;;;;5010652;28;20532;-40